Time;durP1;ratioP1;P1;durP2;ratioP2;P2;SDS_P1;SDS_P2;PMS_P1;PMS_P2;Temp;Humidity;BMP_temperature;BMP_pressure;BME280_temperature;BME280_humidity;BME280_pressure;Samples;Min_cycle;Max_cycle;Signal;HPM_P1;HPM_P2
2024/04/14 00:01:52;;;;;;;;;;;18.60;70.00;;;;;;5393982;26;1825;-72
2024/04/14 00:04:17;;;;;;;;;;;18.60;70.00;;;;;;5393891;26;1673;-70
2024/04/14 00:06:43;;;;;;;;;;;18.60;70.00;;;;;;5400475;26;1500;-71
2024/04/14 00:09:10;;;;;;;;;;;18.60;70.00;;;;;;5395752;26;1792;-71
2024/04/14 00:11:35;;;;;;;;;;;18.60;70.00;;;;;;5395836;26;1440;-71
2024/04/14 00:14:01;;;;;;;;;;;18.60;70.00;;;;;;5398000;26;1813;-72
2024/04/14 00:16:27;;;;;;;;;;;18.60;70.00;;;;;;5367870;26;1990;-73
2024/04/14 00:18:52;;;;;;;;;;;18.60;70.00;;;;;;5388001;26;1863;-73
2024/04/14 00:21:21;;;;;;;;;;;18.60;70.00;;;;;;5395517;26;1845;-73
2024/04/14 00:23:47;;;;;;;;;;;18.60;70.00;;;;;;5390717;26;1454;-73
2024/04/14 00:26:13;;;;;;;;;;;18.60;70.00;;;;;;5394206;26;1746;-73
2024/04/14 00:28:39;;;;;;;;;;;18.60;70.00;;;;;;5393534;26;2010;-74
2024/04/14 00:31:04;;;;;;;;;;;18.60;70.00;;;;;;5396099;26;1899;-74
2024/04/14 00:33:31;;;;;;;;;;;18.60;70.00;;;;;;5397088;26;1754;-73
2024/04/14 00:35:56;;;;;;;;;;;18.60;70.00;;;;;;5395603;26;1930;-73
2024/04/14 00:38:22;;;;;;;;;;;18.60;70.00;;;;;;5390381;26;2089;-73
2024/04/14 00:40:47;;;;;;;;;;;18.60;70.00;;;;;;5397834;26;1824;-73
2024/04/14 00:43:14;;;;;;;;;;;18.60;70.10;;;;;;5396553;26;1945;-73
2024/04/14 00:45:39;;;;;;;;;;;18.60;70.10;;;;;;5392016;26;1975;-72
2024/04/14 00:48:05;;;;;;;;;;;18.60;70.00;;;;;;5395174;26;1784;-71
2024/04/14 00:50:30;;;;;;;;;;;18.60;70.10;;;;;;5393574;26;1495;-72
2024/04/14 00:52:56;;;;;;;;;;;18.60;70.10;;;;;;5398027;26;1627;-72
2024/04/14 00:55:21;;;;;;;;;;;18.60;70.10;;;;;;5406168;26;1437;-72
2024/04/14 00:57:47;;;;;;;;;;;18.60;70.10;;;;;;5394180;26;1708;-70
2024/04/14 01:00:12;;;;;;;;;;;18.60;70.10;;;;;;5366504;26;1834;-70
2024/04/14 01:02:38;;;;;;;;;;;18.60;70.10;;;;;;5393397;26;1914;-70
2024/04/14 01:05:04;;;;;;;;;;;18.60;70.10;;;;;;5390532;26;1717;-70
2024/04/14 01:07:29;;;;;;;;;;;18.60;70.10;;;;;;5393100;26;1762;-70
2024/04/14 01:09:55;;;;;;;;;;;18.60;70.10;;;;;;5387749;26;1862;-70
2024/04/14 01:12:20;;;;;;;;;;;18.60;70.10;;;;;;5400747;26;1899;-70
2024/04/14 01:14:46;;;;;;;;;;;18.60;70.10;;;;;;5393916;26;1792;-73
2024/04/14 01:17:11;;;;;;;;;;;18.60;70.10;;;;;;5390002;26;1626;-73
2024/04/14 01:19:37;;;;;;;;;;;18.60;70.10;;;;;;5398109;26;1877;-71
2024/04/14 01:22:02;;;;;;;;;;;18.60;70.10;;;;;;5392241;26;1445;-70
2024/04/14 01:24:28;;;;;;;;;;;18.60;70.10;;;;;;5389446;26;1326;-69
2024/04/14 01:26:53;;;;;;;;;;;18.60;70.10;;;;;;5388629;26;1554;-71
2024/04/14 01:29:19;;;;;;;;;;;18.60;70.10;;;;;;5411797;26;1603;-71
2024/04/14 01:31:45;;;;;;;;;;;18.60;70.10;;;;;;5400223;26;1068;-71
2024/04/14 01:34:12;;;;;;;;;;;18.60;70.10;;;;;;5405087;26;1876;-73
2024/04/14 01:36:37;;;;;;;;;;;18.50;70.10;;;;;;5396791;26;1196;-73
2024/04/14 01:39:03;;;;;;;;;;;18.60;70.10;;;;;;5373701;26;1434;-73
2024/04/14 01:41:28;;;;;;;;;;;18.50;70.10;;;;;;5396847;26;1867;-72
2024/04/14 01:43:54;;;;;;;;;;;18.60;70.10;;;;;;5401141;26;1565;-72
2024/04/14 01:46:19;;;;;;;;;;;18.50;70.00;;;;;;5398888;26;1441;-72
2024/04/14 01:48:45;;;;;;;;;;;18.60;70.10;;;;;;5401356;26;1188;-71
2024/04/14 01:51:11;;;;;;;;;;;18.60;70.10;;;;;;5399517;26;1901;-71
2024/04/14 01:53:37;;;;;;;;;;;18.60;70.10;;;;;;5398348;26;1829;-71
2024/04/14 01:56:02;;;;;;;;;;;18.50;70.10;;;;;;5396751;26;1845;-71
2024/04/14 01:58:28;;;;;;;;;;;18.50;70.10;;;;;;5394637;26;1666;-71
2024/04/14 02:00:53;;;;;;;;;;;18.60;70.10;;;;;;5394804;26;1837;-72
2024/04/14 02:03:19;;;;;;;;;;;18.60;70.10;;;;;;5396390;26;1767;-72
2024/04/14 02:05:44;;;;;;;;;;;18.60;70.10;;;;;;5392826;26;1387;-71
2024/04/14 02:08:10;;;;;;;;;;;18.60;70.10;;;;;;5388829;26;1974;-71
2024/04/14 02:10:39;;;;;;;;;;;18.60;70.10;;;;;;5393616;26;2049;-71
2024/04/14 02:13:04;;;;;;;;;;;18.60;70.20;;;;;;5393191;26;1890;-71
2024/04/14 02:15:30;;;;;;;;;;;18.60;70.10;;;;;;5390490;26;1865;-71
2024/04/14 02:17:55;;;;;;;;;;;18.60;70.10;;;;;;5398035;26;1913;-71
2024/04/14 02:20:20;;;;;;;;;;;18.60;70.10;;;;;;5392015;26;1840;-72
2024/04/14 02:22:46;;;;;;;;;;;18.60;70.10;;;;;;5394798;26;1893;-71
2024/04/14 02:25:11;;;;;;;;;;;18.60;70.10;;;;;;5397229;26;1757;-70
2024/04/14 02:27:37;;;;;;;;;;;18.60;70.10;;;;;;5397791;26;1768;-71
2024/04/14 02:30:02;;;;;;;;;;;18.60;70.10;;;;;;5397170;26;1964;-72
2024/04/14 02:32:28;;;;;;;;;;;18.60;70.20;;;;;;5393947;26;1753;-72
2024/04/14 02:34:53;;;;;;;;;;;18.60;70.10;;;;;;5396515;26;1744;-72
2024/04/14 02:37:19;;;;;;;;;;;18.60;70.20;;;;;;5401409;26;1852;-72
2024/04/14 02:39:45;;;;;;;;;;;18.50;70.10;;;;;;5393215;26;1913;-72
2024/04/14 02:42:10;;;;;;;;;;;18.60;70.20;;;;;;5408318;26;2024;-72
2024/04/14 02:44:35;;;;;;;;;;;18.60;70.20;;;;;;5392873;26;1863;-72
2024/04/14 02:47:01;;;;;;;;;;;18.50;70.10;;;;;;5403761;26;1919;-72
2024/04/14 02:49:28;;;;;;;;;;;18.60;70.20;;;;;;5396907;26;1776;-72
2024/04/14 02:51:54;;;;;;;;;;;18.60;70.20;;;;;;5394971;26;1794;-69
2024/04/14 02:54:19;;;;;;;;;;;18.60;70.20;;;;;;5395379;26;1901;-70
2024/04/14 02:56:45;;;;;;;;;;;18.60;70.20;;;;;;5396892;26;1896;-70
2024/04/14 02:59:11;;;;;;;;;;;18.60;70.20;;;;;;5399525;26;1864;-70
2024/04/14 03:01:36;;;;;;;;;;;18.60;70.20;;;;;;5395451;26;1867;-71
2024/04/14 03:04:02;;;;;;;;;;;18.60;70.20;;;;;;5392598;26;1855;-71
2024/04/14 03:06:27;;;;;;;;;;;18.60;70.20;;;;;;5391490;26;1859;-71
2024/04/14 03:08:53;;;;;;;;;;;18.50;70.20;;;;;;5398557;26;1831;-71
2024/04/14 03:11:18;;;;;;;;;;;18.60;70.20;;;;;;5393465;26;1737;-71
2024/04/14 03:13:44;;;;;;;;;;;18.60;70.20;;;;;;5396183;26;1419;-70
2024/04/14 03:16:09;;;;;;;;;;;18.60;70.20;;;;;;5402254;26;1769;-71
2024/04/14 03:18:35;;;;;;;;;;;18.60;70.20;;;;;;5393656;26;1821;-70
2024/04/14 03:21:01;;;;;;;;;;;18.60;70.20;;;;;;5394520;26;1873;-71
2024/04/14 03:23:26;;;;;;;;;;;18.60;70.20;;;;;;5391242;26;1749;-70
2024/04/14 03:25:52;;;;;;;;;;;18.60;70.20;;;;;;5395189;26;1775;-71
2024/04/14 03:28:19;;;;;;;;;;;18.50;70.20;;;;;;5399212;26;1863;-71
2024/04/14 03:30:44;;;;;;;;;;;18.60;70.20;;;;;;5398174;26;2017;-71
2024/04/14 03:33:10;;;;;;;;;;;18.60;70.20;;;;;;5396114;26;1529;-73
2024/04/14 03:35:35;;;;;;;;;;;18.60;70.20;;;;;;5396978;26;1507;-73
2024/04/14 03:38:01;;;;;;;;;;;18.50;70.20;;;;;;5394292;26;1510;-73
2024/04/14 03:40:27;;;;;;;;;;;18.60;70.20;;;;;;5390958;26;1826;-73
2024/04/14 03:42:53;;;;;;;;;;;18.60;70.20;;;;;;5394501;26;1396;-72
2024/04/14 03:45:22;;;;;;;;;;;18.50;70.20;;;;;;5395505;26;2006;-72
2024/04/14 03:47:47;;;;;;;;;;;18.60;70.20;;;;;;5407253;26;1495;-72
2024/04/14 03:50:13;;;;;;;;;;;18.60;70.20;;;;;;5398576;26;1759;-72
2024/04/14 03:52:38;;;;;;;;;;;18.50;70.20;;;;;;5395808;26;1925;-72
2024/04/14 03:55:04;;;;;;;;;;;18.60;70.20;;;;;;5390708;26;1969;-69
2024/04/14 03:57:29;;;;;;;;;;;18.60;70.20;;;;;;5391562;26;1897;-69
2024/04/14 03:59:55;;;;;;;;;;;18.60;70.20;;;;;;5391270;26;1822;-70
2024/04/14 04:02:20;;;;;;;;;;;18.60;70.20;;;;;;5387904;26;2076;-69
2024/04/14 04:04:46;;;;;;;;;;;18.60;70.20;;;;;;5397653;26;1430;-69
2024/04/14 04:07:11;;;;;;;;;;;18.60;70.20;;;;;;5395306;26;1580;-70
2024/04/14 04:09:37;;;;;;;;;;;18.60;70.20;;;;;;5395399;26;1370;-69
2024/04/14 04:12:03;;;;;;;;;;;18.60;70.20;;;;;;5399270;26;1352;-69
2024/04/14 04:14:28;;;;;;;;;;;18.60;70.20;;;;;;5391613;26;1340;-69
2024/04/14 04:16:53;;;;;;;;;;;18.60;70.20;;;;;;5394066;26;1863;-69
2024/04/14 04:19:19;;;;;;;;;;;18.60;70.20;;;;;;5398307;26;1836;-73
2024/04/14 04:21:44;;;;;;;;;;;18.50;70.20;;;;;;5401323;26;1843;-72
2024/04/14 04:24:10;;;;;;;;;;;18.50;70.20;;;;;;5395429;26;1750;-70
2024/04/14 04:26:35;;;;;;;;;;;18.50;70.20;;;;;;5387410;26;2007;-70
2024/04/14 04:29:01;;;;;;;;;;;18.50;70.20;;;;;;5395925;26;1676;-71
2024/04/14 04:31:26;;;;;;;;;;;18.60;70.20;;;;;;5395593;26;1794;-70
2024/04/14 04:33:52;;;;;;;;;;;18.60;70.20;;;;;;5391754;26;1617;-70
2024/04/14 04:36:17;;;;;;;;;;;18.60;70.20;;;;;;5406027;26;1958;-70
2024/04/14 04:38:43;;;;;;;;;;;18.50;70.20;;;;;;5402919;26;1286;-70
2024/04/14 04:41:10;;;;;;;;;;;18.60;70.30;;;;;;5404241;26;1862;-70
2024/04/14 04:43:39;;;;;;;;;;;18.50;70.20;;;;;;5399106;26;1470;-70
2024/04/14 04:46:04;;;;;;;;;;;18.50;70.20;;;;;;5404132;26;1673;-70
2024/04/14 04:48:30;;;;;;;;;;;18.60;70.30;;;;;;5404623;26;1262;-70
2024/04/14 04:50:55;;;;;;;;;;;18.60;70.30;;;;;;5368227;26;1893;-70
2024/04/14 04:53:21;;;;;;;;;;;18.50;70.20;;;;;;5398371;26;1852;-70
2024/04/14 04:55:47;;;;;;;;;;;18.60;70.30;;;;;;5371960;26;1863;-71
2024/04/14 04:58:15;;;;;;;;;;;18.50;70.20;;;;;;5404056;26;1949;-71
2024/04/14 05:00:41;;;;;;;;;;;18.60;70.30;;;;;;5397759;26;1864;-71
2024/04/14 05:03:06;;;;;;;;;;;18.60;70.30;;;;;;5399150;26;1865;-71
2024/04/14 05:05:32;;;;;;;;;;;18.60;70.30;;;;;;5396250;26;1564;-71
2024/04/14 05:07:57;;;;;;;;;;;18.50;70.30;;;;;;5384970;26;1219;-71
2024/04/14 05:10:23;;;;;;;;;;;18.50;70.30;;;;;;5399670;26;929;-71
2024/04/14 05:12:48;;;;;;;;;;;18.50;70.30;;;;;;5402759;26;1487;-71
2024/04/14 05:15:14;;;;;;;;;;;18.50;70.20;;;;;;5398043;26;1528;-72
2024/04/14 05:17:39;;;;;;;;;;;18.60;70.30;;;;;;5401566;26;1400;-72
2024/04/14 05:20:05;;;;;;;;;;;18.60;70.30;;;;;;5402612;26;1818;-72
2024/04/14 05:22:31;;;;;;;;;;;18.50;70.30;;;;;;5402894;26;1827;-72
2024/04/14 05:24:56;;;;;;;;;;;18.50;70.30;;;;;;5403251;26;1876;-71
2024/04/14 05:27:21;;;;;;;;;;;18.50;70.30;;;;;;5403542;26;1779;-71
2024/04/14 05:29:47;;;;;;;;;;;18.50;70.30;;;;;;5403332;26;1605;-71
2024/04/14 05:32:13;;;;;;;;;;;18.50;70.30;;;;;;5406428;26;1837;-71
2024/04/14 05:34:38;;;;;;;;;;;18.60;70.30;;;;;;5403914;26;1502;-71
2024/04/14 05:37:04;;;;;;;;;;;18.60;70.30;;;;;;5402866;26;1450;-72
2024/04/14 05:39:30;;;;;;;;;;;18.50;70.30;;;;;;5403840;26;1911;-71
2024/04/14 05:41:56;;;;;;;;;;;18.50;70.30;;;;;;5402730;26;1823;-71
2024/04/14 05:44:21;;;;;;;;;;;18.60;70.30;;;;;;5402092;26;1928;-72
2024/04/14 05:46:47;;;;;;;;;;;18.60;70.30;;;;;;5403243;26;1206;-71
2024/04/14 05:49:12;;;;;;;;;;;18.50;70.30;;;;;;5403120;26;1507;-71
2024/04/14 05:51:38;;;;;;;;;;;18.50;70.30;;;;;;5397696;26;1558;-73
2024/04/14 05:54:04;;;;;;;;;;;18.50;70.30;;;;;;5397360;26;1508;-72
2024/04/14 05:56:29;;;;;;;;;;;18.60;70.30;;;;;;5397015;26;1225;-72
2024/04/14 05:58:55;;;;;;;;;;;18.50;70.30;;;;;;5407396;26;1430;-72
2024/04/14 06:01:20;;;;;;;;;;;18.50;70.30;;;;;;5396728;26;2045;-72
2024/04/14 06:03:46;;;;;;;;;;;18.60;70.30;;;;;;5406164;26;1450;-72
2024/04/14 06:06:11;;;;;;;;;;;18.50;70.30;;;;;;5402205;26;1151;-72
2024/04/14 06:08:37;;;;;;;;;;;18.50;70.30;;;;;;5404782;26;1176;-72
2024/04/14 06:11:03;;;;;;;;;;;18.50;70.30;;;;;;5400253;26;2008;-71
2024/04/14 06:13:32;;;;;;;;;;;18.50;70.30;;;;;;5403348;26;1746;-71
2024/04/14 06:15:58;;;;;;;;;;;18.50;70.30;;;;;;5399105;26;1899;-71
2024/04/14 06:18:23;;;;;;;;;;;18.50;70.30;;;;;;5394792;26;2489;-72
2024/04/14 06:20:49;;;;;;;;;;;18.60;70.30;;;;;;5398891;26;1845;-73
2024/04/14 06:23:14;;;;;;;;;;;18.60;70.30;;;;;;5412101;26;1805;-73
2024/04/14 06:25:40;;;;;;;;;;;18.60;70.20;;;;;;5396331;26;1339;-72
2024/04/14 06:28:05;;;;;;;;;;;18.60;70.20;;;;;;5399070;26;1251;-71
2024/04/14 06:30:31;;;;;;;;;;;18.60;70.20;;;;;;5400288;26;1002;-69
2024/04/14 06:32:56;;;;;;;;;;;18.60;70.20;;;;;;5392315;26;1742;-69
2024/04/14 06:35:22;;;;;;;;;;;18.60;70.10;;;;;;5396399;26;1960;-69
2024/04/14 06:37:47;;;;;;;;;;;18.60;70.10;;;;;;5393633;26;1994;-71
2024/04/14 06:40:15;;;;;;;;;;;18.60;70.10;;;;;;5395972;26;1822;-72
2024/04/14 06:42:41;;;;;;;;;;;18.60;70.00;;;;;;5399736;26;1881;-71
2024/04/14 06:45:06;;;;;;;;;;;18.70;70.10;;;;;;5397494;26;1871;-71
2024/04/14 06:47:32;;;;;;;;;;;18.70;70.00;;;;;;5397785;26;1557;-72
2024/04/14 06:49:57;;;;;;;;;;;18.70;70.00;;;;;;5400003;26;1466;-73
2024/04/14 06:52:23;;;;;;;;;;;18.70;70.00;;;;;;5399709;26;1548;-73
2024/04/14 06:54:48;;;;;;;;;;;18.70;70.00;;;;;;5404036;26;1325;-71
2024/04/14 06:57:14;;;;;;;;;;;18.60;69.90;;;;;;5390061;26;1432;-71
2024/04/14 06:59:39;;;;;;;;;;;18.60;69.90;;;;;;5402786;26;2208;-72
2024/04/14 07:02:05;;;;;;;;;;;18.60;69.90;;;;;;5400355;26;1252;-72
2024/04/14 07:04:30;;;;;;;;;;;18.60;69.90;;;;;;5393735;26;1498;-72
2024/04/14 07:06:56;;;;;;;;;;;18.70;69.90;;;;;;5391087;26;2767;-73
2024/04/14 07:09:21;;;;;;;;;;;18.60;69.80;;;;;;5400138;26;1815;-73
2024/04/14 07:11:47;;;;;;;;;;;18.60;69.80;;;;;;5403051;26;1035;-73
2024/04/14 07:14:12;;;;;;;;;;;18.70;69.90;;;;;;5388882;26;1739;-73
2024/04/14 07:16:38;;;;;;;;;;;18.60;69.80;;;;;;5393307;26;1763;-73
2024/04/14 07:19:03;;;;;;;;;;;18.70;69.90;;;;;;5390740;26;1288;-73
2024/04/14 07:21:29;;;;;;;;;;;18.60;69.80;;;;;;5389673;26;1854;-73
2024/04/14 07:23:54;;;;;;;;;;;18.70;69.90;;;;;;5400321;26;1631;-73
2024/04/14 07:26:19;;;;;;;;;;;18.70;69.90;;;;;;5397136;26;1880;-73
2024/04/14 07:28:45;;;;;;;;;;;18.70;69.90;;;;;;5409435;26;1561;-73
2024/04/14 07:31:10;;;;;;;;;;;18.70;69.90;;;;;;5395251;26;1420;-74
2024/04/14 07:33:36;;;;;;;;;;;18.70;69.90;;;;;;5393500;26;1925;-73
2024/04/14 07:36:02;;;;;;;;;;;18.70;69.90;;;;;;5395046;26;1395;-72
2024/04/14 07:38:27;;;;;;;;;;;18.60;69.80;;;;;;5403311;26;1622;-74
2024/04/14 07:40:52;;;;;;;;;;;18.60;69.80;;;;;;5393654;26;1854;-74
2024/04/14 07:43:18;;;;;;;;;;;18.70;69.90;;;;;;5398967;26;2069;-74
2024/04/14 07:45:43;;;;;;;;;;;18.70;69.90;;;;;;5390888;26;1619;-74
2024/04/14 07:48:09;;;;;;;;;;;18.70;69.90;;;;;;5388611;26;1793;-74
2024/04/14 07:50:41;;;;;;;;;;;18.70;69.90;;;;;;5379749;26;1396;-74
2024/04/14 07:53:07;;;;;;;;;;;18.60;69.90;;;;;;5401052;26;1747;-74
2024/04/14 07:55:32;;;;;;;;;;;18.70;69.90;;;;;;5395720;26;1626;-74
2024/04/14 07:57:57;;;;;;;;;;;18.70;69.90;;;;;;5398923;26;1400;-73
2024/04/14 08:00:23;;;;;;;;;;;18.60;69.80;;;;;;5395167;26;1867;-71
2024/04/14 08:02:48;;;;;;;;;;;18.70;69.90;;;;;;5401054;26;1546;-74
2024/04/14 08:05:14;;;;;;;;;;;18.70;69.90;;;;;;5396015;26;1857;-74
2024/04/14 08:07:39;;;;;;;;;;;18.70;69.90;;;;;;5392890;26;2016;-74
2024/04/14 08:10:05;;;;;;;;;;;18.70;70.00;;;;;;5388344;26;1932;-74
2024/04/14 08:12:30;;;;;;;;;;;18.70;69.90;;;;;;5390640;26;1737;-74
2024/04/14 08:14:56;;;;;;;;;;;18.70;69.90;;;;;;5396066;26;1938;-74
2024/04/14 08:17:21;;;;;;;;;;;18.70;69.90;;;;;;5391839;26;1783;-71
2024/04/14 08:19:48;;;;;;;;;;;18.70;69.90;;;;;;5399642;26;1912;-70
2024/04/14 08:22:14;;;;;;;;;;;18.70;69.90;;;;;;5382025;26;4154;-70
2024/04/14 08:24:40;;;;;;;;;;;18.70;69.90;;;;;;5373946;26;5184;-71
2024/04/14 08:27:06;;;;;;;;;;;18.60;69.90;;;;;;5395689;26;4779;-72
2024/04/14 08:29:31;;;;;;;;;;;18.60;69.90;;;;;;5399917;26;5808;-71
2024/04/14 08:31:57;;;;;;;;;;;18.60;69.90;;;;;;5395158;26;5893;-71
2024/04/14 08:34:22;;;;;;;;;;;18.60;69.90;;;;;;5375555;26;5487;-71
2024/04/14 08:36:48;;;;;;;;;;;18.70;70.00;;;;;;5379667;26;5243;-71
2024/04/14 08:39:14;;;;;;;;;;;18.60;69.90;;;;;;5376607;26;4546;-70
2024/04/14 08:41:41;;;;;;;;;;;18.60;69.90;;;;;;5355945;26;6783;-72
2024/04/14 08:44:08;;;;;;;;;;;18.70;70.00;;;;;;5386237;26;4581;-71
2024/04/14 08:46:34;;;;;;;;;;;18.70;70.00;;;;;;5390657;26;5326;-72
2024/04/14 08:48:59;;;;;;;;;;;18.70;70.00;;;;;;5383990;26;5249;-71
2024/04/14 08:51:25;;;;;;;;;;;18.70;70.00;;;;;;5394170;26;4165;-72
2024/04/14 08:53:51;;;;;;;;;;;18.70;70.00;;;;;;5399495;26;1826;-72
2024/04/14 08:56:16;;;;;;;;;;;18.60;70.00;;;;;;5399043;26;1509;-72
2024/04/14 08:58:43;;;;;;;;;;;18.70;70.10;;;;;;5398212;26;1862;-71
2024/04/14 09:01:09;;;;;;;;;;;18.60;69.90;;;;;;5404652;26;1901;-71
2024/04/14 09:03:34;;;;;;;;;;;18.60;70.00;;;;;;5401855;26;1512;-71
2024/04/14 09:06:03;;;;;;;;;;;18.70;70.00;;;;;;5396818;26;1827;-71
2024/04/14 09:08:29;;;;;;;;;;;18.60;70.00;;;;;;5397277;26;1715;-71
2024/04/14 09:10:55;;;;;;;;;;;18.70;70.00;;;;;;5392013;26;1504;-71
2024/04/14 09:13:25;;;;;;;;;;;18.60;70.00;;;;;;5421953;26;1393;-71
2024/04/14 09:15:51;;;;;;;;;;;18.70;70.00;;;;;;5394859;26;1471;-71
2024/04/14 09:18:16;;;;;;;;;;;18.60;70.00;;;;;;5395783;26;1377;-71
2024/04/14 09:20:42;;;;;;;;;;;18.70;70.10;;;;;;5400463;26;1879;-71
2024/04/14 09:23:10;;;;;;;;;;;18.60;70.00;;;;;;5402264;26;1309;-72
2024/04/14 09:25:36;;;;;;;;;;;18.60;70.00;;;;;;5392994;26;1778;-71
2024/04/14 09:28:10;;;;;;;;;;;18.60;70.00;;;;;;5397288;26;1547;-72
2024/04/14 09:30:39;;;;;;;;;;;18.70;70.10;;;;;;5396653;26;843;-72
2024/04/14 09:33:04;;;;;;;;;;;18.70;70.10;;;;;;5395770;26;1546;-72
2024/04/14 09:35:30;;;;;;;;;;;18.70;70.10;;;;;;5400478;26;1831;-72
2024/04/14 09:37:55;;;;;;;;;;;18.60;70.00;;;;;;5398183;26;1590;-72
2024/04/14 09:40:22;;;;;;;;;;;18.70;70.10;;;;;;5390205;26;1868;-71
2024/04/14 09:42:48;;;;;;;;;;;18.60;70.00;;;;;;5396642;26;1548;-71
2024/04/14 09:45:13;;;;;;;;;;;18.70;70.10;;;;;;5393277;26;1433;-72
2024/04/14 09:47:39;;;;;;;;;;;18.70;70.10;;;;;;5405050;26;1421;-71
2024/04/14 09:50:07;;;;;;;;;;;18.60;70.00;;;;;;5394043;26;1805;-71
2024/04/14 09:52:33;;;;;;;;;;;18.70;70.10;;;;;;5406970;26;1341;-71
2024/04/14 09:54:58;;;;;;;;;;;18.60;70.10;;;;;;5388906;26;1596;-72
2024/04/14 09:57:24;;;;;;;;;;;18.70;70.10;;;;;;5391008;26;1840;-72
2024/04/14 09:59:49;;;;;;;;;;;18.60;70.10;;;;;;5395054;26;1821;-73
2024/04/14 10:02:16;;;;;;;;;;;18.60;70.00;;;;;;5390001;26;1534;-72
2024/04/14 10:04:42;;;;;;;;;;;18.70;70.10;;;;;;5394807;26;2014;-72
2024/04/14 10:07:07;;;;;;;;;;;18.60;70.00;;;;;;5364719;26;1941;-73
2024/04/14 10:09:34;;;;;;;;;;;18.70;70.10;;;;;;5376333;26;1935;-72
2024/04/14 10:12:00;;;;;;;;;;;18.60;70.00;;;;;;5390879;26;1482;-72
2024/04/14 10:14:27;;;;;;;;;;;18.70;70.10;;;;;;5396351;26;1910;-73
2024/04/14 10:16:55;;;;;;;;;;;18.60;70.00;;;;;;5392655;26;1522;-73
2024/04/14 10:19:24;;;;;;;;;;;18.60;70.00;;;;;;5379304;26;1590;-73
2024/04/14 10:21:59;;;;;;;;;;;18.60;70.10;;;;;;5400411;26;1848;-72
2024/04/14 10:24:25;;;;;;;;;;;18.60;70.10;;;;;;5402072;26;2556;-72
2024/04/14 10:26:50;;;;;;;;;;;18.60;70.10;;;;;;5393947;26;1766;-73
2024/04/14 10:29:19;;;;;;;;;;;18.60;70.10;;;;;;5395634;26;1943;-72
2024/04/14 10:31:44;;;;;;;;;;;18.60;70.10;;;;;;5398167;26;1777;-72
2024/04/14 10:34:10;;;;;;;;;;;18.60;70.10;;;;;;5397553;26;1597;-72
2024/04/14 10:36:37;;;;;;;;;;;18.60;70.10;;;;;;5399340;26;2003;-72
2024/04/14 10:39:03;;;;;;;;;;;18.60;70.10;;;;;;5394583;26;1774;-72
2024/04/14 10:41:28;;;;;;;;;;;18.60;70.10;;;;;;5399460;26;3077;-72
2024/04/14 10:43:54;;;;;;;;;;;18.60;70.10;;;;;;5396648;26;1558;-73
2024/04/14 10:46:19;;;;;;;;;;;18.60;70.10;;;;;;5397082;26;1684;-72
2024/04/14 10:48:45;;;;;;;;;;;18.60;70.10;;;;;;5403886;26;1458;-72
2024/04/14 10:51:11;;;;;;;;;;;18.60;70.10;;;;;;5406587;26;1749;-73
2024/04/14 10:53:37;;;;;;;;;;;18.60;70.10;;;;;;5392255;26;1844;-73
2024/04/14 10:56:02;;;;;;;;;;;18.60;70.10;;;;;;5399215;26;1483;-73
2024/04/14 10:58:31;;;;;;;;;;;18.60;70.10;;;;;;5421238;26;2091;-72
2024/04/14 11:00:57;;;;;;;;;;;18.60;70.10;;;;;;5398369;26;1825;-72
2024/04/14 11:03:25;;;;;;;;;;;18.60;70.10;;;;;;5400421;26;1998;-72
2024/04/14 11:05:51;;;;;;;;;;;18.60;70.10;;;;;;5398659;26;1911;-72
2024/04/14 11:08:16;;;;;;;;;;;18.60;70.10;;;;;;5390477;26;1833;-73
2024/04/14 11:10:42;;;;;;;;;;;18.60;70.10;;;;;;5398469;26;2498;-72
2024/04/14 11:13:08;;;;;;;;;;;18.60;70.10;;;;;;5363683;26;2508;-72
2024/04/14 11:15:33;;;;;;;;;;;18.60;70.10;;;;;;5399921;26;1693;-72
2024/04/14 11:17:59;;;;;;;;;;;18.60;70.10;;;;;;5397880;26;1899;-72
2024/04/14 11:20:25;;;;;;;;;;;18.60;70.10;;;;;;5391075;26;2014;-72
2024/04/14 11:22:50;;;;;;;;;;;18.60;70.10;;;;;;5401340;26;1455;-73
2024/04/14 11:25:16;;;;;;;;;;;18.60;70.20;;;;;;5399028;26;1673;-72
2024/04/14 11:27:41;;;;;;;;;;;18.60;70.20;;;;;;5399403;26;1414;-72
2024/04/14 11:30:07;;;;;;;;;;;18.60;70.20;;;;;;5367461;26;1918;-72
2024/04/14 11:32:35;;;;;;;;;;;18.60;70.20;;;;;;5401653;26;1492;-72
2024/04/14 11:35:01;;;;;;;;;;;18.60;70.20;;;;;;5388568;26;2008;-72
2024/04/14 11:37:30;;;;;;;;;;;18.60;70.20;;;;;;5397793;26;1778;-72
2024/04/14 11:39:57;;;;;;;;;;;18.60;70.20;;;;;;5399311;26;1822;-72
2024/04/14 11:42:26;;;;;;;;;;;18.60;70.20;;;;;;5370655;26;2020;-72
2024/04/14 11:44:52;;;;;;;;;;;18.60;70.20;;;;;;5425887;26;2500;-72
2024/04/14 11:47:18;;;;;;;;;;;18.60;70.20;;;;;;5399923;26;1677;-72
2024/04/14 11:49:43;;;;;;;;;;;18.60;70.20;;;;;;5396770;26;1802;-72
2024/04/14 11:52:09;;;;;;;;;;;18.60;70.20;;;;;;5393749;26;1887;-71
2024/04/14 11:54:34;;;;;;;;;;;18.60;70.20;;;;;;5394250;26;1416;-72
2024/04/14 11:57:00;;;;;;;;;;;18.60;70.20;;;;;;5397432;26;2034;-73
2024/04/14 11:59:25;;;;;;;;;;;18.60;70.20;;;;;;5390350;26;1734;-73
2024/04/14 12:01:51;;;;;;;;;;;18.60;70.20;;;;;;5400749;26;1818;-73
2024/04/14 12:04:16;;;;;;;;;;;18.60;70.20;;;;;;5376597;26;2061;-73
2024/04/14 12:06:42;;;;;;;;;;;18.60;70.20;;;;;;5392549;26;1899;-73
2024/04/14 12:09:07;;;;;;;;;;;18.60;70.20;;;;;;5392318;26;1446;-73
2024/04/14 12:11:33;;;;;;;;;;;18.60;70.20;;;;;;5376825;26;1781;-72
2024/04/14 12:13:58;;;;;;;;;;;18.60;70.20;;;;;;5396589;26;1875;-72
2024/04/14 12:16:23;;;;;;;;;;;18.60;70.20;;;;;;5393852;26;1769;-72
2024/04/14 12:18:49;;;;;;;;;;;18.60;70.20;;;;;;5398269;26;1131;-71
2024/04/14 12:21:15;;;;;;;;;;;18.60;70.20;;;;;;5392497;26;1822;-72
2024/04/14 12:23:40;;;;;;;;;;;18.60;70.20;;;;;;5393656;26;1313;-72
2024/04/14 12:26:06;;;;;;;;;;;18.60;70.20;;;;;;5387778;26;1756;-71
2024/04/14 12:28:31;;;;;;;;;;;18.60;70.20;;;;;;5394219;26;1996;-71
2024/04/14 12:30:57;;;;;;;;;;;18.60;70.20;;;;;;5390373;26;1528;-72
2024/04/14 12:33:22;;;;;;;;;;;18.60;70.30;;;;;;5386969;26;1448;-72
2024/04/14 12:35:48;;;;;;;;;;;18.60;70.30;;;;;;5391194;26;1542;-71
2024/04/14 12:38:13;;;;;;;;;;;18.60;70.20;;;;;;5394893;26;1195;-72
2024/04/14 12:40:40;;;;;;;;;;;18.60;70.20;;;;;;5395451;26;1826;-72
2024/04/14 12:43:05;;;;;;;;;;;18.60;70.30;;;;;;5391713;26;1576;-72
2024/04/14 12:45:32;;;;;;;;;;;18.60;70.30;;;;;;5399840;26;1498;-72
2024/04/14 12:47:57;;;;;;;;;;;18.60;70.30;;;;;;5393241;26;1579;-72
2024/04/14 12:50:23;;;;;;;;;;;18.60;70.30;;;;;;5399401;26;1821;-72
2024/04/14 12:52:48;;;;;;;;;;;18.60;70.30;;;;;;5403397;26;1850;-72
2024/04/14 12:55:14;;;;;;;;;;;18.60;70.30;;;;;;5395576;26;1600;-72
2024/04/14 12:57:39;;;;;;;;;;;18.60;70.30;;;;;;5404066;26;1822;-72
2024/04/14 13:00:05;;;;;;;;;;;18.60;70.30;;;;;;5400779;26;1869;-74
2024/04/14 13:02:31;;;;;;;;;;;18.60;70.30;;;;;;5408275;26;1455;-72
2024/04/14 13:04:56;;;;;;;;;;;18.60;70.30;;;;;;5390512;26;1557;-72
2024/04/14 13:07:22;;;;;;;;;;;18.60;70.30;;;;;;5392168;26;1729;-72
2024/04/14 13:09:47;;;;;;;;;;;18.60;70.30;;;;;;5396125;26;1806;-72
2024/04/14 13:12:13;;;;;;;;;;;18.60;70.30;;;;;;5390327;26;1895;-72
2024/04/14 13:14:38;;;;;;;;;;;18.60;70.30;;;;;;5394888;26;1944;-70
2024/04/14 13:17:04;;;;;;;;;;;18.60;70.30;;;;;;5380804;26;1308;-71
2024/04/14 13:19:32;;;;;;;;;;;18.60;70.30;;;;;;5402328;26;1183;-70
2024/04/14 13:21:58;;;;;;;;;;;18.60;70.30;;;;;;5408784;26;1855;-70
2024/04/14 13:24:24;;;;;;;;;;;18.60;70.30;;;;;;5399796;26;1538;-71
2024/04/14 13:26:49;;;;;;;;;;;18.60;70.30;;;;;;5373822;26;1531;-71
2024/04/14 13:29:15;;;;;;;;;;;18.60;70.30;;;;;;5406696;26;1404;-71
2024/04/14 13:31:40;;;;;;;;;;;18.60;70.30;;;;;;5405466;26;1420;-71
2024/04/14 13:34:06;;;;;;;;;;;18.60;70.30;;;;;;5401697;26;1508;-70
2024/04/14 13:36:31;;;;;;;;;;;18.60;70.30;;;;;;5398940;26;1506;-70
2024/04/14 13:38:57;;;;;;;;;;;18.60;70.30;;;;;;5403918;26;1124;-71
2024/04/14 13:41:22;;;;;;;;;;;18.60;70.30;;;;;;5398626;26;1826;-71
2024/04/14 13:43:48;;;;;;;;;;;18.60;70.30;;;;;;5410268;26;940;-71
2024/04/14 13:46:13;;;;;;;;;;;18.60;70.40;;;;;;5409128;26;1665;-70
2024/04/14 13:48:38;;;;;;;;;;;18.60;70.30;;;;;;5398431;26;1171;-71
2024/04/14 13:51:05;;;;;;;;;;;18.60;71.10;;;;;;5394555;26;923;-71
2024/04/14 13:53:32;;;;;;;;;;;18.60;70.30;;;;;;5397958;26;1291;-71
2024/04/14 13:55:57;;;;;;;;;;;18.60;70.30;;;;;;5403665;26;1669;-71
2024/04/14 13:58:22;;;;;;;;;;;18.60;70.30;;;;;;5410678;26;1590;-71
2024/04/14 14:00:48;;;;;;;;;;;18.60;70.30;;;;;;5405287;26;1857;-70
2024/04/14 14:03:14;;;;;;;;;;;18.60;70.40;;;;;;5403553;26;1520;-70
2024/04/14 14:05:39;;;;;;;;;;;18.50;70.30;;;;;;5402154;26;1237;-70
2024/04/14 14:08:05;;;;;;;;;;;18.60;70.40;;;;;;5398223;26;1800;-70
2024/04/14 14:10:30;;;;;;;;;;;18.60;70.40;;;;;;5402752;26;1413;-70
2024/04/14 14:12:56;;;;;;;;;;;18.60;70.40;;;;;;5393123;26;1049;-70
2024/04/14 14:15:22;;;;;;;;;;;18.50;70.30;;;;;;5397485;26;1109;-70
2024/04/14 14:17:47;;;;;;;;;;;18.60;70.40;;;;;;5397284;26;1525;-69
2024/04/14 14:20:13;;;;;;;;;;;18.60;70.40;;;;;;5398228;26;1818;-71
2024/04/14 14:22:38;;;;;;;;;;;18.60;70.40;;;;;;5398462;26;1748;-71